Time;durP1;ratioP1;P1;durP2;ratioP2;P2;SDS_P1;SDS_P2;PMS_P1;PMS_P2;Temp;Humidity;BMP_temperature;BMP_pressure;BME280_temperature;BME280_humidity;BME280_pressure;Samples;Min_cycle;Max_cycle;Signal;HPM_P1;HPM_P2
2023/02/15 00:01:19;;;;;;;13.23;7.43;;;0.40;99.90;;;;;;4990865;28;20091;-83
2023/02/15 00:03:47;;;;;;;13.90;7.70;;;0.40;99.90;;;;;;4994844;28;20040;-82
2023/02/15 00:06:12;;;;;;;12.85;7.60;;;0.30;99.90;;;;;;4990129;28;20026;-82
2023/02/15 00:08:38;;;;;;;12.88;6.38;;;0.40;99.90;;;;;;4989938;28;20494;-82
2023/02/15 00:11:09;;;;;;;13.98;6.78;;;0.30;99.90;;;;;;5025280;28;20394;-83
2023/02/15 00:13:36;;;;;;;14.25;7.28;;;0.40;99.90;;;;;;5019776;28;20029;-82
2023/02/15 00:16:12;;;;;;;12.27;7.10;;;0.40;99.90;;;;;;5020135;28;20057;-82
2023/02/15 00:18:39;;;;;;;15.80;6.90;;;0.40;99.90;;;;;;5013838;28;20554;-82
2023/02/15 00:21:07;;;;;;;16.02;8.05;;;0.30;99.90;;;;;;5005128;28;20077;-82
2023/02/15 00:23:33;;;;;;;14.73;8.32;;;0.30;99.90;;;;;;5015397;28;20030;-82
2023/02/15 00:26:12;;;;;;;14.25;7.60;;;0.30;99.90;;;;;;5005721;28;20367;-82
2023/02/15 00:28:39;;;;;;;14.73;7.60;;;0.10;99.90;;;;;;4998807;28;20104;-82
2023/02/15 00:31:10;;;;;;;15.23;7.10;;;0.10;99.90;;;;;;5001437;28;20486;-83
2023/02/15 00:33:37;;;;;;;13.10;7.15;;;0.20;99.90;;;;;;4993351;28;20216;-82
2023/02/15 00:36:05;;;;;;;14.43;7.53;;;0.20;99.90;;;;;;4992927;28;20034;-82
2023/02/15 00:38:31;;;;;;;12.68;7.13;;;0.20;99.90;;;;;;4987100;28;20026;-82
2023/02/15 00:40:59;;;;;;;15.00;7.15;;;0.20;99.90;;;;;;4991339;28;20496;-83
2023/02/15 00:43:26;;;;;;;12.93;6.90;;;0.10;99.90;;;;;;5001536;28;20076;-83
2023/02/15 00:45:52;;;;;;;14.68;7.15;;;0.10;99.90;;;;;;5017060;28;20065;-83
2023/02/15 00:48:19;;;;;;;13.02;7.22;;;0.00;99.90;;;;;;5008344;28;20087;-83
2023/02/15 00:50:46;;;;;;;12.32;6.28;;;0.00;99.90;;;;;;4977442;28;20034;-82
2023/02/15 00:53:12;;;;;;;12.07;6.68;;;0.00;99.90;;;;;;4986323;28;20025;-84
2023/02/15 00:55:39;;;;;;;11.82;5.97;;;0.10;99.90;;;;;;5009451;28;20050;-82
2023/02/15 00:58:06;;;;;;;12.13;6.00;;;0.00;99.90;;;;;;5026336;28;20052;-82
2023/02/15 01:00:31;;;;;;;14.30;7.68;;;-0.10;99.90;;;;;;5045919;28;20034;-82
2023/02/15 01:02:57;;;;;;;11.23;6.32;;;-0.20;99.90;;;;;;5048517;28;20035;-84
2023/02/15 01:05:23;;;;;;;14.25;7.63;;;-0.20;99.90;;;;;;5025778;28;20040;-83
2023/02/15 01:07:48;;;;;;;11.25;6.13;;;-0.30;99.90;;;;;;5050323;28;20049;-83
2023/02/15 01:10:14;;;;;;;14.98;7.72;;;-0.20;99.90;;;;;;5048848;28;20025;-82
2023/02/15 01:12:40;;;;;;;13.98;7.07;;;-0.30;99.90;;;;;;5043583;28;20029;-83
2023/02/15 01:15:06;;;;;;;11.80;6.65;;;-0.20;99.90;;;;;;5033876;28;20120;-83
2023/02/15 01:17:32;;;;;;;14.25;7.03;;;-0.10;99.90;;;;;;5048684;28;20025;-83
2023/02/15 01:19:59;;;;;;;12.40;7.22;;;-0.30;99.90;;;;;;5027036;28;20452;-83
2023/02/15 01:22:25;;;;;;;13.52;6.43;;;-0.40;99.90;;;;;;5049959;28;20492;-83
2023/02/15 01:24:50;;;;;;;12.50;6.63;;;-0.30;99.90;;;;;;5032163;28;20030;-83
2023/02/15 01:27:16;;;;;;;13.02;6.90;;;-0.20;99.90;;;;;;5047594;28;20519;-83
2023/02/15 01:29:42;;;;;;;13.18;6.40;;;-0.40;99.90;;;;;;5034164;28;20033;-82
2023/02/15 01:32:08;;;;;;;13.05;6.50;;;-0.40;99.90;;;;;;5044086;28;20100;-83
2023/02/15 01:34:34;;;;;;;11.98;6.05;;;-0.50;99.90;;;;;;5050709;28;20120;-82
2023/02/15 01:37:00;;;;;;;12.63;5.60;;;-0.30;99.90;;;;;;5045961;28;20676;-82
2023/02/15 01:39:25;;;;;;;10.68;5.88;;;-0.20;99.90;;;;;;5042588;28;20079;-82
2023/02/15 01:41:51;;;;;;;12.98;5.88;;;-0.20;99.90;;;;;;5040987;28;20037;-82
2023/02/15 01:44:46;;;;;;;10.25;5.38;;;-0.40;99.90;;;;;;5038630;28;20034;-83
2023/02/15 01:47:36;;;;;;;9.73;5.43;;;-0.40;99.90;;;;;;5041918;28;20060;-83
2023/02/15 01:50:26;;;;;;;9.90;4.80;;;-0.50;99.90;;;;;;5033011;28;20410;-83
2023/02/15 01:52:58;;;;;;;10.00;5.30;;;-0.40;99.90;;;;;;5023549;28;20026;-83
2023/02/15 01:55:29;;;;;;;11.02;5.75;;;-0.50;99.90;;;;;;5024568;28;20056;-83
2023/02/15 01:57:54;;;;;;;11.45;6.30;;;-0.50;99.90;;;;;;5048338;28;20029;-82
2023/02/15 02:00:21;;;;;;;13.18;6.22;;;-0.60;99.90;;;;;;5046370;28;20441;-82
2023/02/15 02:02:50;;;;;;;13.75;6.07;;;-0.50;99.90;;;;;;5025241;28;20111;-83
2023/02/15 02:05:16;;;;;;;13.18;6.55;;;-0.40;99.90;;;;;;5043141;28;20509;-83
2023/02/15 02:07:45;;;;;;;12.27;6.25;;;-0.40;99.90;;;;;;5043555;28;20026;-83
2023/02/15 02:10:15;;;;;;;13.43;7.15;;;-0.50;99.90;;;;;;5041713;28;20029;-83
2023/02/15 02:12:43;;;;;;;12.88;5.97;;;-0.60;99.90;;;;;;5029659;28;20029;-84
2023/02/15 02:15:10;;;;;;;12.18;6.85;;;-0.40;99.90;;;;;;5044610;28;20033;-83
2023/02/15 02:17:49;;;;;;;11.98;5.93;;;-0.50;99.90;;;;;;5043323;28;20064;-83
2023/02/15 02:20:42;;;;;;;14.52;6.15;;;-0.50;99.90;;;;;;5049841;28;20059;-85
2023/02/15 02:23:22;;;;;;;14.15;6.10;;;-0.50;99.90;;;;;;5042393;28;20030;-83
2023/02/15 02:26:09;;;;;;;13.68;6.60;;;-0.60;99.90;;;;;;5029702;28;20037;-84
2023/02/15 02:28:57;;;;;;;10.82;5.68;;;-0.60;99.90;;;;;;5041957;28;20180;-84
2023/02/15 02:31:45;;;;;;;10.80;5.40;;;-0.70;99.90;;;;;;5023842;28;20549;-84
2023/02/15 02:34:26;;;;;;;10.00;4.70;;;-0.60;99.90;;;;;;5023981;28;20028;-85
2023/02/15 02:37:11;;;;;;;;;;;-0.60;99.90;;;;;;5043047;28;20477;-85
2023/02/15 02:40:03;;;;;;;11.00;5.10;;;-0.60;99.90;;;;;;5041004;28;19955;-83
2023/02/15 02:42:49;;;;;;;12.52;5.78;;;-0.70;99.90;;;;;;5045278;28;20037;-84
2023/02/15 02:45:24;;;;;;;9.88;5.32;;;-0.70;99.90;;;;;;5043376;28;20031;-84
2023/02/15 02:48:03;;;;;;;10.90;5.38;;;-0.80;99.90;;;;;;5026407;28;20040;-84
2023/02/15 02:50:30;;;;;;;9.27;4.73;;;-0.80;99.90;;;;;;5042804;28;20102;-84
2023/02/15 02:52:58;;;;;;;11.13;5.65;;;-0.80;99.90;;;;;;5042132;28;20679;-84
2023/02/15 02:55:36;;;;;;;11.90;6.03;;;-0.70;99.90;;;;;;5023758;28;20045;-84
2023/02/15 02:58:11;;;;;;;11.68;5.53;;;-0.90;99.90;;;;;;5024437;28;20017;-84
2023/02/15 03:00:50;;;;;;;12.25;6.05;;;-0.90;99.90;;;;;;5042083;28;20536;-84
2023/02/15 03:03:37;;;;;;;10.20;5.53;;;-1.00;99.90;;;;;;5042445;28;20112;-84
2023/02/15 03:06:10;;;;;;;12.48;6.20;;;-1.00;99.90;;;;;;5046299;28;20034;-84
2023/02/15 03:08:47;;;;;;;11.90;6.10;;;-1.00;99.90;;;;;;5025375;28;20021;-85
2023/02/15 03:11:12;;;;;;;11.40;5.88;;;-1.00;99.90;;;;;;5039226;28;20022;-84
2023/02/15 03:13:41;;;;;;;10.30;5.95;;;-1.00;99.90;;;;;;5045743;28;20044;-84
2023/02/15 03:16:28;;;;;;;10.95;5.78;;;-1.10;99.90;;;;;;5030810;28;20025;-85
2023/02/15 03:18:57;;;;;;;11.95;5.85;;;-1.00;99.90;;;;;;5027819;28;20036;-83
2023/02/15 03:21:57;;;;;;;10.70;4.90;;;-1.00;99.90;;;;;;5030431;28;20041;-84
2023/02/15 03:24:29;;;;;;;11.77;5.00;;;-1.10;99.90;;;;;;5041741;28;20038;-81
2023/02/15 03:26:56;;;;;;;10.32;5.45;;;-1.10;99.90;;;;;;5040955;28;20478;-84
2023/02/15 03:29:25;;;;;;;10.38;5.82;;;-1.10;99.90;;;;;;5031829;28;20025;-84
2023/02/15 03:31:57;;;;;;;12.07;5.97;;;-1.20;99.90;;;;;;5043855;28;20029;-83
2023/02/15 03:34:23;;;;;;;10.30;4.72;;;-1.30;99.90;;;;;;5045985;28;20036;-83
2023/02/15 03:37:13;;;;;;;11.38;5.15;;;-1.10;99.90;;;;;;5039906;28;20637;-84
2023/02/15 03:39:50;;;;;;;10.90;5.45;;;-1.10;99.90;;;;;;5040997;28;20091;-84
2023/02/15 03:42:32;;;;;;;11.25;5.05;;;-1.10;99.90;;;;;;5021882;28;20409;-82
2023/02/15 03:45:01;;;;;;;12.35;5.38;;;-1.30;99.90;;;;;;5040991;28;20053;-85
2023/02/15 03:47:40;;;;;;;10.82;5.40;;;-1.30;99.90;;;;;;5020515;28;20036;-83
2023/02/15 03:53:07;;;;;;;10.40;5.18;;;-1.30;99.90;;;;;;5052975;28;20026;-85
2023/02/15 03:55:34;;;;;;;9.52;4.75;;;-1.40;99.90;;;;;;5031198;28;20045;-83
2023/02/15 04:03:55;;;;;;;8.55;4.22;;;-1.30;99.90;;;;;;5038568;28;20112;-85
2023/02/15 04:06:22;;;;;;;8.95;4.47;;;-1.30;99.90;;;;;;5051175;28;20045;-83
2023/02/15 04:11:31;;;;;;;10.48;4.65;;;-1.40;99.90;;;;;;5041612;28;20029;-83
2023/02/15 04:13:58;;;;;;;8.98;4.53;;;-1.40;99.90;;;;;;5041879;28;20592;-84
2023/02/15 04:16:24;;;;;;;9.63;4.38;;;-1.40;99.90;;;;;;5045132;28;20033;-83
2023/02/15 04:27:05;;;;;;;8.20;4.57;;;-1.50;99.90;;;;;;5038332;28;20108;-84
2023/02/15 04:29:31;;;;;;;9.98;4.30;;;-1.60;99.90;;;;;;5035660;28;20036;-85
2023/02/15 04:32:00;;;;;;;8.52;4.18;;;-1.50;99.90;;;;;;5038923;28;20029;-84
2023/02/15 04:34:26;;;;;;;8.10;4.35;;;-1.40;99.90;;;;;;5029031;28;20104;-85
2023/02/15 04:36:51;;;;;;;11.95;4.88;;;-1.50;99.90;;;;;;5029910;28;20533;-84
2023/02/15 04:39:18;;;;;;;10.27;4.55;;;-1.60;99.90;;;;;;5027599;28;20036;-84
2023/02/15 04:41:44;;;;;;;7.70;3.65;;;-1.60;99.90;;;;;;5045104;28;20245;-84
2023/02/15 04:44:10;;;;;;;7.28;3.55;;;-1.60;99.90;;;;;;5037267;28;20828;-84
2023/02/15 04:46:37;;;;;;;7.25;2.97;;;-1.50;99.90;;;;;;5036193;28;20099;-85
2023/02/15 04:49:03;;;;;;;6.03;3.00;;;-1.50;99.90;;;;;;5030335;28;20053;-84
2023/02/15 04:51:28;;;;;;;7.88;3.80;;;-1.60;99.90;;;;;;5046440;28;20067;-85
2023/02/15 04:53:55;;;;;;;7.40;3.83;;;-1.60;99.90;;;;;;5044950;28;20547;-83
2023/02/15 04:56:21;;;;;;;7.35;3.30;;;-1.60;99.90;;;;;;5027020;28;20057;-85
2023/02/15 04:58:47;;;;;;;7.88;3.53;;;-1.50;99.90;;;;;;5043956;28;20116;-84
2023/02/15 05:01:13;;;;;;;7.75;3.53;;;-1.70;99.90;;;;;;5042668;28;20037;-85
2023/02/15 05:03:38;;;;;;;6.65;3.05;;;-1.70;99.90;;;;;;5037286;28;20029;-85
2023/02/15 05:06:05;;;;;;;6.75;3.67;;;-1.70;99.90;;;;;;5023289;28;20034;-85
2023/02/15 05:08:31;;;;;;;7.35;2.92;;;-1.70;99.90;;;;;;5026196;28;20033;-85
2023/02/15 05:10:57;;;;;;;9.65;3.70;;;-1.40;99.90;;;;;;5023481;28;20033;-84
2023/02/15 05:13:23;;;;;;;8.07;3.45;;;-1.50;99.90;;;;;;5044849;28;20036;-86
2023/02/15 05:15:52;;;;;;;8.68;3.88;;;-1.60;99.90;;;;;;5027260;28;20037;-83
2023/02/15 05:18:21;;;;;;;7.70;3.05;;;-1.60;99.90;;;;;;5038337;28;20716;-85
2023/02/15 05:20:47;;;;;;;9.35;3.15;;;-1.60;99.90;;;;;;5022041;28;20046;-85
2023/02/15 05:23:13;;;;;;;7.38;3.40;;;-1.60;99.90;;;;;;5040592;28;20055;-85
2023/02/15 05:28:27;;;;;;;8.02;2.90;;;-1.60;99.90;;;;;;5040030;28;20028;-85
2023/02/15 05:31:09;;;;;;;8.40;3.42;;;-1.50;99.90;;;;;;5038642;28;20060;-85
2023/02/15 05:33:35;;;;;;;7.60;3.03;;;-1.50;99.90;;;;;;5019458;28;20025;-85
2023/02/15 05:36:01;;;;;;;7.20;3.03;;;-1.40;99.90;;;;;;5042545;28;20037;-84
2023/02/15 05:38:27;;;;;;;9.07;3.72;;;-1.40;99.90;;;;;;5026573;28;20480;-85
2023/02/15 05:40:53;;;;;;;9.63;3.85;;;-1.40;99.90;;;;;;5042140;28;20033;-85
2023/02/15 05:43:19;;;;;;;7.55;3.63;;;-1.30;99.90;;;;;;5030370;28;20025;-85
2023/02/15 05:45:50;;;;;;;8.38;3.67;;;-1.30;99.90;;;;;;5036146;28;20033;-85
2023/02/15 05:48:16;;;;;;;10.30;3.83;;;-1.10;99.90;;;;;;5042763;28;20033;-85
2023/02/15 05:50:42;;;;;;;7.70;3.15;;;-1.00;99.90;;;;;;5042594;28;20065;-85
2023/02/15 05:53:07;;;;;;;8.30;3.60;;;-1.00;99.90;;;;;;5045803;28;20034;-86
2023/02/15 05:55:33;;;;;;;9.23;3.95;;;-0.80;99.90;;;;;;5028490;28;20042;-85
2023/02/15 05:57:59;;;;;;;10.27;4.60;;;-0.80;99.90;;;;;;5044342;28;20040;-85
2023/02/15 06:00:25;;;;;;;9.80;4.38;;;-0.90;99.90;;;;;;5048794;28;20036;-84
2023/02/15 06:02:50;;;;;;;9.93;3.97;;;-0.90;99.90;;;;;;5049376;28;20029;-84
2023/02/15 06:05:16;;;;;;;11.60;5.07;;;-1.00;99.90;;;;;;5047798;28;20025;-85
2023/02/15 06:07:45;;;;;;;9.68;4.05;;;-0.90;99.90;;;;;;5059310;28;20100;-84
2023/02/15 06:10:11;;;;;;;11.20;4.78;;;-1.00;99.90;;;;;;5048963;28;20491;-84
2023/02/15 06:12:37;;;;;;;9.05;4.30;;;-1.10;99.90;;;;;;5040228;28;20487;-84
2023/02/15 06:15:03;;;;;;;9.32;4.05;;;-1.10;99.90;;;;;;5029899;28;20033;-85
2023/02/15 06:17:29;;;;;;;10.65;4.80;;;-1.20;99.90;;;;;;5043730;28;20535;-85
2023/02/15 06:19:55;;;;;;;10.75;4.22;;;-1.10;99.90;;;;;;5042658;28;20993;-84
2023/02/15 06:22:20;;;;;;;8.27;3.47;;;-1.10;99.90;;;;;;5045870;28;20029;-85
2023/02/15 06:24:47;;;;;;;10.30;4.07;;;-1.20;99.90;;;;;;5047050;28;20056;-85
2023/02/15 06:27:13;;;;;;;8.90;4.22;;;-1.20;99.90;;;;;;5043691;28;20049;-86
2023/02/15 06:29:38;;;;;;;11.70;4.85;;;-1.40;99.90;;;;;;5028726;28;20040;-85
2023/02/15 06:32:04;;;;;;;11.45;4.60;;;-1.40;99.90;;;;;;5045387;28;20048;-85
2023/02/15 06:34:30;;;;;;;9.88;4.22;;;-1.20;99.90;;;;;;5028850;28;20124;-81
2023/02/15 06:36:56;;;;;;;9.75;4.25;;;-1.20;99.90;;;;;;5027952;28;20107;-80
2023/02/15 06:39:22;;;;;;;10.95;4.80;;;-1.20;99.90;;;;;;5045288;28;20036;-85
2023/02/15 06:41:47;;;;;;;11.10;5.60;;;-1.10;99.90;;;;;;5020211;28;20482;-85
2023/02/15 06:44:13;;;;;;;11.25;4.82;;;-1.20;99.90;;;;;;5029496;28;20051;-86
2023/02/15 06:46:39;;;;;;;11.00;4.68;;;-1.00;99.90;;;;;;5030310;28;20219;-83
2023/02/15 06:49:05;;;;;;;12.68;4.80;;;-0.90;99.90;;;;;;5048076;28;20501;-84
2023/02/15 06:51:30;;;;;;;10.80;4.43;;;-1.00;99.90;;;;;;5040965;28;20033;-82
2023/02/15 06:53:56;;;;;;;12.65;5.60;;;-0.90;99.90;;;;;;5023562;28;20032;-85
2023/02/15 06:56:22;;;;;;;11.30;4.47;;;-0.70;99.90;;;;;;5031211;28;20517;-86
2023/02/15 06:58:49;;;;;;;12.02;5.72;;;-0.80;99.90;;;;;;5040656;28;20033;-85
2023/02/15 07:01:15;;;;;;;10.80;4.47;;;-0.80;99.90;;;;;;5043217;28;20060;-86
2023/02/15 07:03:41;;;;;;;12.45;4.80;;;-0.90;99.90;;;;;;5046898;28;20036;-85
2023/02/15 07:06:08;;;;;;;8.82;4.15;;;-0.90;99.90;;;;;;5025853;28;20037;-86
2023/02/15 07:08:35;;;;;;;9.80;4.03;;;-0.90;99.90;;;;;;5027115;28;20076;-85
2023/02/15 07:13:47;;;;;;;11.57;5.43;;;-0.70;99.90;;;;;;5008692;28;20034;-84
2023/02/15 07:16:13;;;;;;;12.57;5.43;;;-0.60;99.90;;;;;;5039208;28;20511;-85
2023/02/15 07:18:39;;;;;;;13.63;6.13;;;-0.40;99.90;;;;;;5053405;28;20172;-85
2023/02/15 07:21:09;;;;;;;11.60;5.53;;;-0.30;99.90;;;;;;5041091;28;20478;-85
2023/02/15 07:23:39;;;;;;;13.18;5.93;;;-0.20;99.90;;;;;;5045614;28;20116;-86
2023/02/15 07:26:06;;;;;;;14.23;6.35;;;-0.10;99.90;;;;;;5027412;28;20033;-86
2023/02/15 07:28:33;;;;;;;13.20;5.75;;;-0.10;99.90;;;;;;5034888;28;20598;-86
2023/02/15 07:31:04;;;;;;;14.90;7.25;;;0.00;99.90;;;;;;5030628;28;20056;-86
2023/02/15 07:33:34;;;;;;;16.23;7.38;;;0.10;99.90;;;;;;5046335;28;20029;-85
2023/02/15 07:36:02;;;;;;;14.32;6.35;;;0.00;99.90;;;;;;5042336;28;20155;-86
2023/02/15 07:38:31;;;;;;;15.30;7.03;;;0.00;99.90;;;;;;5024030;28;20146;-86
2023/02/15 07:40:59;;;;;;;14.57;6.40;;;0.10;99.90;;;;;;5026273;28;20045;-87
2023/02/15 07:43:24;;;;;;;14.00;6.50;;;0.20;99.90;;;;;;5028120;28;20033;-85
2023/02/15 07:45:50;;;;;;;14.55;6.90;;;0.20;99.90;;;;;;5039595;28;20048;-86
2023/02/15 07:48:16;;;;;;;12.48;5.85;;;0.20;99.90;;;;;;5037848;28;20517;-86
2023/02/15 07:50:42;;;;;;;12.70;6.32;;;0.20;99.90;;;;;;5045188;28;20426;-87
2023/02/15 07:53:08;;;;;;;12.38;6.53;;;0.20;99.90;;;;;;5040693;28;20056;-85
2023/02/15 07:55:33;;;;;;;12.00;6.18;;;0.30;99.90;;;;;;5039867;28;20057;-87
2023/02/15 07:57:59;;;;;;;12.82;5.90;;;0.20;99.90;;;;;;5030366;28;20131;-85
2023/02/15 08:00:25;;;;;;;12.75;6.03;;;0.30;99.90;;;;;;5036077;28;20060;-86
2023/02/15 08:05:37;;;;;;;13.82;5.93;;;0.40;99.90;;;;;;5043378;28;20052;-86
2023/02/15 08:08:02;;;;;;;11.18;5.80;;;0.40;99.90;;;;;;5043948;28;20037;-88
2023/02/15 08:13:13;;;;;;;12.95;6.35;;;0.60;99.90;;;;;;5040475;28;20111;-86
2023/02/15 08:15:38;;;;;;;13.02;6.80;;;0.80;99.90;;;;;;5038744;28;20033;-84
2023/02/15 08:18:04;;;;;;;17.92;8.02;;;0.90;99.90;;;;;;5026603;28;20032;-84
2023/02/15 08:20:30;;;;;;;19.05;9.57;;;1.10;99.90;;;;;;5046301;28;20037;-84
2023/02/15 08:22:56;;;;;;;21.58;10.98;;;1.10;99.90;;;;;;5046108;28;20112;-84
2023/02/15 08:25:21;;;;;;;21.42;11.45;;;1.30;99.90;;;;;;5044970;28;20033;-85
2023/02/15 08:27:47;;;;;;;19.75;10.57;;;1.30;99.90;;;;;;5045198;28;20158;-85
2023/02/15 08:30:14;;;;;;;19.55;9.57;;;1.40;99.90;;;;;;5037297;28;20056;-86
2023/02/15 08:32:39;;;;;;;21.58;10.43;;;1.50;99.90;;;;;;5040719;28;20033;-86
2023/02/15 08:35:05;;;;;;;16.45;8.60;;;1.50;99.90;;;;;;5043967;28;20109;-87
2023/02/15 08:37:31;;;;;;;21.88;10.90;;;1.60;99.90;;;;;;5041083;28;20025;-86
2023/02/15 08:39:56;;;;;;;23.65;12.57;;;1.70;99.90;;;;;;5029411;28;20068;-84
2023/02/15 08:42:22;;;;;;;26.83;12.90;;;1.80;99.90;;;;;;5041594;28;20067;-83
2023/02/15 08:44:50;;;;;;;22.23;12.07;;;1.90;99.90;;;;;;5038510;28;20041;-82
2023/02/15 08:47:16;;;;;;;24.05;12.77;;;2.00;99.90;;;;;;5051256;28;20520;-83
2023/02/15 08:49:41;;;;;;;24.25;12.30;;;2.10;99.90;;;;;;5042716;28;20150;-83
2023/02/15 08:52:07;;;;;;;21.05;11.20;;;2.20;99.90;;;;;;5024103;28;20493;-83
2023/02/15 08:54:33;;;;;;;21.92;11.82;;;2.40;99.90;;;;;;5028072;28;20025;-84
2023/02/15 08:56:59;;;;;;;23.33;11.50;;;2.40;99.90;;;;;;5044645;28;20386;-85
2023/02/15 08:59:26;;;;;;;19.95;11.20;;;2.50;99.90;;;;;;5042820;28;20017;-84
2023/02/15 09:01:53;;;;;;;25.65;13.48;;;2.70;99.90;;;;;;5038720;28;20041;-86
2023/02/15 09:04:20;;;;;;;21.17;10.95;;;2.80;99.90;;;;;;5026204;28;20033;-84
2023/02/15 09:06:47;;;;;;;24.35;13.48;;;2.90;99.90;;;;;;5013016;28;20034;-84
2023/02/15 09:09:13;;;;;;;24.10;13.43;;;3.10;99.90;;;;;;5054644;28;20064;-84
2023/02/15 09:11:41;;;;;;;23.10;12.18;;;3.20;99.90;;;;;;5045870;28;20064;-84
2023/02/15 09:14:17;;;;;;;23.98;12.48;;;3.20;99.90;;;;;;5048209;28;20379;-84
2023/02/15 09:16:46;;;;;;;25.58;12.82;;;3.40;99.90;;;;;;5034265;28;20041;-84
2023/02/15 09:19:12;;;;;;;20.42;11.45;;;3.50;99.90;;;;;;5028142;28;20124;-85
2023/02/15 09:21:38;;;;;;;18.20;9.93;;;3.70;99.90;;;;;;5033473;28;20489;-85
2023/02/15 09:24:06;;;;;;;22.27;11.00;;;3.80;99.90;;;;;;5033218;28;20095;-84
2023/02/15 09:26:36;;;;;;;20.65;10.93;;;4.00;99.90;;;;;;5025696;28;20025;-84
2023/02/15 09:29:03;;;;;;;18.42;10.27;;;4.10;99.90;;;;;;5041710;28;20080;-84
2023/02/15 09:31:36;;;;;;;18.40;8.88;;;4.20;99.90;;;;;;5029713;28;20031;-84
2023/02/15 09:34:02;;;;;;;17.45;9.57;;;4.40;99.90;;;;;;5049999;28;20113;-84
2023/02/15 09:36:30;;;;;;;16.77;9.18;;;4.50;99.90;;;;;;5045454;28;20363;-83
2023/02/15 09:39:13;;;;;;;17.42;9.23;;;4.50;99.90;;;;;;5047671;28;20536;-83
2023/02/15 09:42:06;;;;;;;18.55;9.48;;;4.70;99.90;;;;;;5029295;28;20405;-83
2023/02/15 09:45:07;;;;;;;16.45;8.13;;;4.70;99.90;;;;;;5047124;28;20099;-82
2023/02/15 09:47:56;;;;;;;20.77;11.50;;;4.80;99.90;;;;;;5027341;28;20374;-82
2023/02/15 09:50:25;;;;;;;17.73;9.82;;;4.80;99.90;;;;;;5043642;28;20279;-82
2023/02/15 09:52:51;;;;;;;18.52;9.88;;;4.80;99.90;;;;;;5042409;28;20056;-82
2023/02/15 09:56:00;;;;;;;18.88;9.98;;;5.00;99.90;;;;;;5043326;28;20068;-81
2023/02/15 09:58:36;;;;;;;20.10;10.77;;;5.00;99.90;;;;;;5074377;28;20032;-82
2023/02/15 10:01:19;;;;;;;17.33;10.18;;;5.00;99.90;;;;;;5060139;28;20025;-81
2023/02/15 10:04:13;;;;;;;18.25;10.20;;;5.10;99.90;;;;;;5048016;28;20480;-81
2023/02/15 10:07:12;;;;;;;18.25;9.15;;;5.30;99.90;;;;;;5046753;28;20029;-81
2023/02/15 10:10:02;;;;;;;16.75;9.35;;;5.40;99.90;;;;;;5062275;28;20035;-81
2023/02/15 10:12:49;;;;;;;17.98;10.45;;;5.50;99.90;;;;;;5064192;28;20492;-81
2023/02/15 10:15:51;;;;;;;18.17;10.73;;;5.60;99.90;;;;;;5060919;28;20039;-80
2023/02/15 10:18:35;;;;;;;21.10;11.95;;;5.60;99.90;;;;;;5057701;28;20044;-81
2023/02/15 10:21:11;;;;;;;19.98;11.80;;;5.70;99.90;;;;;;5062815;28;20064;-81
2023/02/15 10:24:21;;;;;;;23.75;13.77;;;5.90;99.90;;;;;;5061668;28;20028;-82
2023/02/15 10:26:48;;;;;;;27.90;13.50;;;6.00;99.90;;;;;;5056617;28;20113;-82
2023/02/15 10:29:36;;;;;;;19.23;11.77;;;6.10;99.90;;;;;;5046226;28;20071;-82
2023/02/15 10:32:18;;;;;;;20.30;11.90;;;6.20;99.90;;;;;;5043129;28;20067;-81
2023/02/15 10:34:59;;;;;;;20.15;11.02;;;6.40;99.90;;;;;;5045792;28;20406;-81
2023/02/15 10:37:37;;;;;;;22.10;12.65;;;6.50;99.90;;;;;;5062355;28;20060;-82
2023/02/15 10:40:25;;;;;;;19.40;10.85;;;6.70;99.90;;;;;;5057401;28;20031;-82
2023/02/15 10:42:53;;;;;;;16.98;9.70;;;6.90;99.90;;;;;;5039983;28;20064;-81
2023/02/15 10:45:37;;;;;;;17.23;9.93;;;7.00;99.90;;;;;;5064925;28;20104;-82
2023/02/15 10:48:40;;;;;;;18.70;10.23;;;7.20;99.90;;;;;;5060270;28;20031;-81
2023/02/15 10:51:14;;;;;;;20.17;11.48;;;7.20;99.90;;;;;;5061964;28;20037;-80
2023/02/15 10:54:11;;;;;;;21.33;12.18;;;7.20;99.90;;;;;;5046029;28;20029;-82
2023/02/15 10:56:48;;;;;;;17.33;11.50;;;7.40;99.90;;;;;;5040984;28;20044;-82
2023/02/15 10:59:22;;;;;;;20.75;11.27;;;7.40;99.90;;;;;;5062019;28;20166;-81
2023/02/15 11:02:00;;;;;;;18.38;11.13;;;7.50;99.90;;;;;;5055644;28;20041;-81
2023/02/15 11:04:44;;;;;;;21.40;12.55;;;7.60;99.90;;;;;;5042487;28;20033;-82
2023/02/15 11:07:39;;;;;;;22.15;13.90;;;7.70;99.90;;;;;;5048993;28;20041;-81
2023/02/15 11:10:33;;;;;;;22.65;12.93;;;7.90;99.90;;;;;;5041757;28;20036;-81
2023/02/15 11:13:07;;;;;;;20.25;11.98;;;8.10;99.90;;;;;;5059996;28;20474;-83
2023/02/15 11:15:47;;;;;;;23.40;12.25;;;8.10;99.90;;;;;;5061679;28;20033;-84
2023/02/15 11:18:33;;;;;;;23.00;14.05;;;8.10;99.90;;;;;;5058019;28;20028;-83
2023/02/15 11:21:06;;;;;;;24.80;14.70;;;8.20;99.90;;;;;;5060394;28;20090;-83
2023/02/15 11:23:35;;;;;;;18.42;11.40;;;8.40;99.90;;;;;;5062850;28;20029;-84
2023/02/15 11:26:06;;;;;;;23.52;14.57;;;8.50;99.90;;;;;;5066463;28;20051;-84
2023/02/15 11:28:39;;;;;;;23.67;12.40;;;8.50;99.90;;;;;;5044662;28;20083;-84
2023/02/15 11:31:18;;;;;;;25.42;14.23;;;8.70;99.90;;;;;;5063133;28;20024;-83
2023/02/15 11:33:54;;;;;;;20.17;12.98;;;8.70;99.90;;;;;;5059469;28;20465;-82
2023/02/15 11:36:27;;;;;;;19.02;11.40;;;8.80;99.90;;;;;;5045841;28;20278;-83
2023/02/15 11:39:15;;;;;;;20.73;12.52;;;8.90;99.90;;;;;;5042745;28;20025;-82
2023/02/15 11:41:51;;;;;;;23.20;13.52;;;8.90;99.90;;;;;;5057190;28;20421;-82
2023/02/15 11:44:39;;;;;;;20.17;12.50;;;9.00;99.90;;;;;;5046329;28;20128;-82
2023/02/15 11:47:10;;;;;;;18.25;10.77;;;9.20;99.90;;;;;;5044329;28;20036;-82
2023/02/15 11:49:37;;;;;;;19.27;11.85;;;9.20;99.90;;;;;;5055167;28;20071;-81
2023/02/15 11:52:10;;;;;;;17.02;10.85;;;9.20;99.90;;;;;;5042911;28;20025;-81
2023/02/15 11:54:40;;;;;;;15.60;10.75;;;9.20;99.90;;;;;;5063104;28;20040;-82
2023/02/15 11:57:15;;;;;;;17.48;11.20;;;9.50;99.90;;;;;;5055961;28;20488;-81
2023/02/15 11:59:45;;;;;;;16.75;9.70;;;9.50;99.90;;;;;;5044775;28;20156;-80
2023/02/15 12:02:20;;;;;;;18.67;10.70;;;9.70;99.90;;;;;;5059092;28;20043;-81
2023/02/15 12:05:17;;;;;;;18.45;11.25;;;9.70;99.90;;;;;;5052249;28;20039;-81
2023/02/15 12:08:03;;;;;;;18.30;10.23;;;9.80;99.90;;;;;;5054397;28;20029;-80
2023/02/15 12:10:51;;;;;;;19.58;11.95;;;9.70;99.90;;;;;;5059299;28;20063;-81
2023/02/15 12:13:19;;;;;;;20.60;12.15;;;9.80;99.90;;;;;;5058174;28;20040;-81
2023/02/15 12:15:54;;;;;;;18.52;11.23;;;9.80;99.90;;;;;;5059888;28;20053;-81
2023/02/15 12:18:30;;;;;;;19.27;11.23;;;9.70;99.90;;;;;;5059154;28;20154;-79
2023/02/15 12:21:00;;;;;;;18.45;10.68;;;9.60;99.90;;;;;;5059213;28;20127;-80
2023/02/15 12:23:29;;;;;;;19.00;11.18;;;9.80;99.90;;;;;;5073687;28;20112;-80
2023/02/15 12:25:56;;;;;;;17.92;11.25;;;9.90;99.90;;;;;;5057703;28;20036;-80
2023/02/15 12:28:30;;;;;;;17.05;10.27;;;10.10;99.90;;;;;;5052435;28;20033;-81
2023/02/15 12:30:57;;;;;;;15.07;9.60;;;10.40;99.90;;;;;;5045049;28;20134;-80
2023/02/15 12:33:45;;;;;;;13.88;9.40;;;10.50;99.90;;;;;;5056110;28;20067;-81
2023/02/15 12:36:23;;;;;;;14.90;8.80;;;10.50;99.90;;;;;;5054427;28;20044;-81
2023/02/15 12:39:11;;;;;;;16.33;10.38;;;10.60;99.90;;;;;;5054620;28;20047;-80
2023/02/15 12:41:43;;;;;;;15.13;8.13;;;10.70;99.90;;;;;;5054122;28;20115;-80
2023/02/15 12:44:18;;;;;;;16.55;10.13;;;10.80;99.90;;;;;;5042174;28;20112;-80
2023/02/15 12:47:16;;;;;;;15.52;9.30;;;10.90;99.90;;;;;;5055056;28;20147;-81
2023/02/15 12:49:42;;;;;;;18.00;10.20;;;10.80;99.90;;;;;;5053201;28;20029;-81
2023/02/15 12:52:17;;;;;;;19.73;12.02;;;10.90;99.90;;;;;;5045106;28;20399;-81
2023/02/15 12:54:43;;;;;;;20.35;12.48;;;11.00;99.90;;;;;;5044035;28;20071;-80
2023/02/15 12:57:25;;;;;;;25.65;14.63;;;11.00;99.90;;;;;;5036007;28;20399;-80
2023/02/15 12:59:55;;;;;;;20.40;12.73;;;11.10;99.90;;;;;;5032631;28;20129;-80
2023/02/15 13:02:43;;;;;;;21.85;13.55;;;11.20;99.90;;;;;;5053395;28;20122;-82
2023/02/15 13:05:32;;;;;;;19.10;11.27;;;11.30;99.90;;;;;;5066718;28;20032;-80
2023/02/15 13:08:14;;;;;;;21.05;12.50;;;11.50;99.90;;;;;;5048840;28;20127;-80
2023/02/15 13:10:55;;;;;;;20.55;12.73;;;11.60;99.90;;;;;;5054220;28;20025;-81
2023/02/15 13:13:51;;;;;;;22.00;13.20;;;11.60;99.90;;;;;;5053105;28;20036;-80
2023/02/15 13:16:24;;;;;;;19.05;11.70;;;11.40;99.90;;;;;;5021950;28;20547;-81
2023/02/15 13:18:52;;;;;;;19.83;11.65;;;11.40;99.90;;;;;;5056955;28;20548;-80
2023/02/15 13:21:26;;;;;;;16.95;10.63;;;11.50;99.90;;;;;;5052674;28;20123;-80
2023/02/15 13:23:57;;;;;;;20.38;13.10;;;11.40;99.90;;;;;;5060538;28;20040;-81
2023/02/15 13:26:29;;;;;;;22.65;13.63;;;11.40;99.90;;;;;;5059995;28;20021;-81
2023/02/15 13:29:12;;;;;;;20.95;12.48;;;11.30;99.90;;;;;;5063748;28;20037;-80
2023/02/15 13:31:39;;;;;;;21.52;13.32;;;11.30;99.90;;;;;;5073565;28;20043;-80
2023/02/15 13:34:09;;;;;;;18.90;11.98;;;11.30;99.90;;;;;;5062360;28;20127;-81
2023/02/15 13:36:47;;;;;;;17.25;10.27;;;11.30;99.90;;;;;;5058402;28;20033;-81